Terminal Aerodrome Forecast
Issued by NWS Charleston, SC

Home | Current Version | Previous Version | Text Only | Print | Product List | Glossary On
Versions: 1 2 3 4 5 6 7 8 9 10 11 12
000
FTUS42 KCHS 260535
TAFCHS
TAF
KCHS 260535Z 2606/2706 11004KT P6SM SCT020 BKN250
      TEMPO 2608/2612 BKN018
     FM261400 17009KT P6SM SCT035
     FM270000 17005KT P6SM SCT025=

USA.gov is the U.S. government's official web portal to all federal, state and local government web resources and services.